createdAt,value
2023-04-20T00:01:07.325Z,5.07
2023-04-20T00:03:35.373Z,4.85
2023-04-20T00:06:02.371Z,4.90
2023-04-20T00:11:15.682Z,5.38
2023-04-20T00:13:42.640Z,6.30
2023-04-20T00:16:09.480Z,5.93
2023-04-20T00:18:36.279Z,6.15
2023-04-20T00:21:03.263Z,5.43
2023-04-20T00:23:30.181Z,5.63
2023-04-20T00:25:57.039Z,5.22
2023-04-20T00:28:23.846Z,5.95
2023-04-20T00:30:50.676Z,5.28
2023-04-20T00:33:17.481Z,4.85
2023-04-20T00:35:44.273Z,5.57
2023-04-20T00:38:11.087Z,5.65
2023-04-20T00:40:37.913Z,5.10
2023-04-20T00:43:12.645Z,6.22
2023-04-20T00:45:39.593Z,5.68
2023-04-20T00:48:07.272Z,5.53
2023-04-20T00:50:35.073Z,5.03
2023-04-20T00:53:03.199Z,5.35
2023-04-20T00:55:31.172Z,5.07
2023-04-20T00:57:58.941Z,5.05
2023-04-20T01:00:26.527Z,5.70
2023-04-20T01:02:53.551Z,5.18
2023-04-20T01:05:21.650Z,5.80
2023-04-20T01:07:50.037Z,5.65
2023-04-20T01:10:17.067Z,4.88
2023-04-20T01:12:43.986Z,5.95
2023-04-20T01:15:11.055Z,5.80
2023-04-20T01:17:39.613Z,5.47
2023-04-20T01:20:14.855Z,5.90
2023-04-20T01:22:49.207Z,5.47
2023-04-20T01:25:17.145Z,5.30
2023-04-20T01:30:15.042Z,5.78
2023-04-20T01:32:42.008Z,6.05
2023-04-20T01:35:09.125Z,5.40
2023-04-20T01:37:36.425Z,4.93
2023-04-20T01:40:04.494Z,5.22
2023-04-20T01:42:31.268Z,5.15
2023-04-20T01:44:58.246Z,6.53
2023-04-20T01:47:25.001Z,5.10
2023-04-20T01:49:51.863Z,6.07
2023-04-20T01:52:18.718Z,6.30
2023-04-20T01:54:45.699Z,5.75
2023-04-20T01:57:12.544Z,5.32
2023-04-20T01:59:39.289Z,5.88
2023-04-20T02:02:06.496Z,6.47
2023-04-20T02:04:34.621Z,5.70
2023-04-20T02:07:01.462Z,6.25
2023-04-20T02:09:28.229Z,6.63
2023-04-20T02:11:55.006Z,5.45
2023-04-20T02:14:22.006Z,6.35
2023-04-20T02:16:48.862Z,6.78
2023-04-20T02:19:15.800Z,6.30
2023-04-20T02:21:43.222Z,5.60
2023-04-20T02:24:10.072Z,5.72
2023-04-20T02:26:36.803Z,6.05
2023-04-20T02:29:03.618Z,5.63
2023-04-20T02:31:30.486Z,6.20
2023-04-20T02:33:57.318Z,5.68
2023-04-20T02:36:24.083Z,5.82
2023-04-20T02:38:50.937Z,5.78
2023-04-20T02:41:18.830Z,6.20
2023-04-20T02:43:45.574Z,5.40
2023-04-20T02:46:12.534Z,5.85
2023-04-20T02:48:39.395Z,5.40
2023-04-20T02:51:06.273Z,6.28
2023-04-20T02:53:33.000Z,5.75
2023-04-20T02:55:59.905Z,6.03
2023-04-20T02:58:26.817Z,6.65
2023-04-20T03:01:02.148Z,6.35
2023-04-20T03:03:30.225Z,5.65
2023-04-20T03:05:57.099Z,6.63
2023-04-20T03:08:23.937Z,6.05
2023-04-20T03:10:50.936Z,7.05
2023-04-20T03:13:17.747Z,6.15
2023-04-20T03:15:44.584Z,5.75
2023-04-20T03:18:11.698Z,5.63
2023-04-20T03:20:38.476Z,6.90
2023-04-20T03:23:05.543Z,7.07
2023-04-20T03:25:32.360Z,5.60
2023-04-20T03:27:59.747Z,6.85
2023-04-20T03:30:26.749Z,6.13
2023-04-20T03:32:53.489Z,6.45
2023-04-20T03:35:20.951Z,6.47
2023-04-20T03:37:47.854Z,6.60
2023-04-20T03:40:14.968Z,6.75
2023-04-20T03:42:41.847Z,6.65
2023-04-20T03:45:09.082Z,6.45
2023-04-20T03:47:36.046Z,7.50
2023-04-20T03:50:03.226Z,6.68
2023-04-20T03:52:29.983Z,6.72
2023-04-20T03:54:56.759Z,7.40
2023-04-20T03:57:23.577Z,6.88
2023-04-20T03:59:50.333Z,7.03
2023-04-20T04:02:17.294Z,6.82
2023-04-20T04:04:45.438Z,7.10
2023-04-20T04:07:12.494Z,7.18
2023-04-20T04:09:39.237Z,6.15
2023-04-20T04:12:07.036Z,7.22
2023-04-20T04:14:34.923Z,6.95
2023-04-20T04:17:01.889Z,6.57
2023-04-20T04:19:28.704Z,7.13
2023-04-20T04:21:55.512Z,6.88
2023-04-20T04:24:22.607Z,7.10
2023-04-20T04:26:49.773Z,6.90
2023-04-20T04:29:16.836Z,7.50
2023-04-20T04:31:43.912Z,7.45
2023-04-20T04:34:10.791Z,7.28
2023-04-20T04:36:37.661Z,7.10
2023-04-20T04:39:04.584Z,7.00
2023-04-20T04:41:31.402Z,7.63
2023-04-20T04:43:59.508Z,7.60
2023-04-20T04:46:27.608Z,7.30
2023-04-20T04:48:54.687Z,7.55
2023-04-20T04:51:21.616Z,9.68
2023-04-20T04:53:49.652Z,9.57
2023-04-20T04:56:18.466Z,7.50
2023-04-20T04:58:48.330Z,8.45
2023-04-20T05:01:15.146Z,7.85
2023-04-20T05:03:42.062Z,8.07
2023-04-20T05:06:09.008Z,7.70
2023-04-20T05:08:35.845Z,7.85
2023-04-20T05:11:02.783Z,7.80
2023-04-20T05:13:29.829Z,7.05
2023-04-20T05:15:56.574Z,7.70
2023-04-20T05:18:23.344Z,8.13
2023-04-20T05:20:50.171Z,8.57
2023-04-20T05:23:16.973Z,6.97
2023-04-20T05:25:44.322Z,6.57
2023-04-20T05:28:11.201Z,7.65
2023-04-20T05:30:38.078Z,7.25
2023-04-20T05:33:04.928Z,7.50
2023-04-20T05:35:31.797Z,7.85
2023-04-20T05:38:00.414Z,6.63
2023-04-20T05:40:27.152Z,7.38
2023-04-20T05:42:54.422Z,7.13
2023-04-20T05:45:21.268Z,8.75
2023-04-20T05:47:55.950Z,8.65
2023-04-20T05:50:26.857Z,6.57
2023-04-20T05:52:54.187Z,7.65
2023-04-20T05:55:22.841Z,6.90
2023-04-20T05:57:51.983Z,7.60
2023-04-20T06:00:22.018Z,6.70
2023-04-20T06:02:50.199Z,7.40
2023-04-20T06:05:17.445Z,7.30
2023-04-20T06:07:44.249Z,7.47
2023-04-20T06:10:11.615Z,8.40
2023-04-20T06:12:38.440Z,7.63
2023-04-20T06:15:08.377Z,7.60
2023-04-20T06:17:37.359Z,7.10
2023-04-20T06:20:05.658Z,7.47
2023-04-20T06:22:32.487Z,6.78
2023-04-20T06:25:00.501Z,7.18
2023-04-20T06:27:27.283Z,7.75
2023-04-20T06:29:54.738Z,7.65
2023-04-20T06:32:21.500Z,7.07
2023-04-20T06:34:48.490Z,7.90
2023-04-20T06:37:15.410Z,7.22
2023-04-20T06:39:43.075Z,7.60
2023-04-20T06:42:10.860Z,7.00
2023-04-20T06:44:37.621Z,8.13
2023-04-20T06:47:04.475Z,7.07
2023-04-20T06:49:31.305Z,8.90
2023-04-20T06:51:58.148Z,7.05
2023-04-20T06:54:24.995Z,6.50
2023-04-20T06:56:51.792Z,7.28
2023-04-20T06:59:19.644Z,8.40
2023-04-20T07:01:46.617Z,7.43
2023-04-20T07:04:13.517Z,7.38
2023-04-20T07:06:40.366Z,6.82
2023-04-20T07:09:08.516Z,7.32
2023-04-20T07:11:35.414Z,7.53
2023-04-20T07:14:02.351Z,7.90
2023-04-20T07:16:29.169Z,8.10
2023-04-20T07:18:56.021Z,8.65
2023-04-20T07:21:22.798Z,7.63
2023-04-20T07:23:50.660Z,6.70
2023-04-20T07:26:17.622Z,7.82
2023-04-20T07:28:44.467Z,8.50
2023-04-20T07:31:11.220Z,7.97
2023-04-20T07:33:38.020Z,8.23
2023-04-20T07:36:06.242Z,8.00
2023-04-20T07:38:33.090Z,8.73
2023-04-20T07:40:59.866Z,12.75
2023-04-20T07:43:26.706Z,8.57
2023-04-20T07:45:53.859Z,8.02
2023-04-20T07:48:20.771Z,8.15
2023-04-20T07:50:50.626Z,8.32
2023-04-20T07:53:17.461Z,7.50
2023-04-20T07:55:44.241Z,8.35
2023-04-20T07:58:11.983Z,8.82
2023-04-20T08:00:38.752Z,8.15
2023-04-20T08:03:06.116Z,8.15
2023-04-20T08:05:33.263Z,9.43
2023-04-20T08:08:00.341Z,8.10
2023-04-20T08:10:27.162Z,8.68
2023-04-20T08:12:54.069Z,9.15
2023-04-20T08:15:21.038Z,8.85
2023-04-20T08:17:47.936Z,8.50
2023-04-20T08:20:14.756Z,8.90
2023-04-20T08:22:41.590Z,9.55
2023-04-20T08:25:08.685Z,8.98
2023-04-20T08:27:35.489Z,8.07
2023-04-20T08:30:04.227Z,8.30
2023-04-20T08:32:31.282Z,8.52
2023-04-20T08:34:58.051Z,8.55
2023-04-20T08:37:25.794Z,9.05
2023-04-20T08:39:52.576Z,9.73
2023-04-20T08:42:19.427Z,9.70
2023-04-20T08:44:46.278Z,9.52
2023-04-20T08:47:14.397Z,10.10
2023-04-20T08:49:41.775Z,9.77
2023-04-20T08:52:11.155Z,9.15
2023-04-20T08:54:45.909Z,9.40
2023-04-20T08:57:19.994Z,9.88
2023-04-20T08:59:46.723Z,8.93
2023-04-20T09:02:14.617Z,9.15
2023-04-20T09:04:41.684Z,9.00
2023-04-20T09:07:18.426Z,8.80
2023-04-20T09:09:59.030Z,9.50
2023-04-20T09:12:26.130Z,8.60
2023-04-20T09:14:53.725Z,8.82
2023-04-20T09:17:40.221Z,8.48
2023-04-20T09:20:08.480Z,8.88
2023-04-20T09:22:37.047Z,8.32
2023-04-20T09:25:17.102Z,9.10
2023-04-20T09:27:43.915Z,9.20
2023-04-20T09:30:11.171Z,8.45
2023-04-20T09:32:38.076Z,7.72
2023-04-20T09:35:06.740Z,7.70
2023-04-20T09:37:33.542Z,7.45
2023-04-20T09:40:00.846Z,7.43
2023-04-20T09:42:28.940Z,7.93
2023-04-20T09:44:57.003Z,7.82
2023-04-20T09:47:25.970Z,7.90
2023-04-20T09:49:54.632Z,6.82
2023-04-20T09:52:22.710Z,7.82
2023-04-20T09:54:51.596Z,7.63
2023-04-20T09:57:19.676Z,8.02
2023-04-20T09:59:47.446Z,7.50
2023-04-20T10:02:15.017Z,8.93
2023-04-20T10:04:56.057Z,8.18
2023-04-20T10:07:28.032Z,8.00
2023-04-20T10:10:09.830Z,7.95
2023-04-20T10:12:51.615Z,7.38
2023-04-20T10:15:19.154Z,8.27
2023-04-20T10:17:46.261Z,7.07
2023-04-20T10:20:27.986Z,7.15
2023-04-20T10:23:07.188Z,6.90
2023-04-20T10:25:34.103Z,7.18
2023-04-20T10:28:05.389Z,7.22
2023-04-20T10:30:33.206Z,7.90
2023-04-20T10:33:07.220Z,8.82
2023-04-20T10:35:51.960Z,8.73
2023-04-20T10:38:34.801Z,8.35
2023-04-20T10:41:12.783Z,8.05
2023-04-20T10:43:43.167Z,8.25
2023-04-20T10:46:24.521Z,7.88
2023-04-20T10:48:56.228Z,9.20
2023-04-20T10:51:24.025Z,8.38
2023-04-20T10:54:07.729Z,9.57
2023-04-20T10:56:39.183Z,8.57
2023-04-20T10:59:16.889Z,7.45
2023-04-20T11:01:45.517Z,6.65
2023-04-20T11:04:12.822Z,8.02
2023-04-20T11:06:48.072Z,7.82
2023-04-20T11:11:47.113Z,7.57
2023-04-20T11:14:13.958Z,8.00
2023-04-20T11:16:52.142Z,7.55
2023-04-20T11:19:33.669Z,7.80
2023-04-20T11:22:02.700Z,6.60
2023-04-20T11:24:31.899Z,7.03
2023-04-20T11:26:59.045Z,7.38
2023-04-20T11:29:32.590Z,6.68
2023-04-20T11:32:01.664Z,6.90
2023-04-20T11:34:29.115Z,6.35
2023-04-20T11:36:56.856Z,6.60
2023-04-20T11:39:25.618Z,7.47
2023-04-20T11:41:52.960Z,6.85
2023-04-20T11:44:24.217Z,6.07
2023-04-20T11:46:53.248Z,6.10
2023-04-20T11:49:21.348Z,6.80
2023-04-20T11:51:48.286Z,6.20
2023-04-20T11:54:15.428Z,6.68
2023-04-20T11:56:42.685Z,6.50
2023-04-20T11:59:09.564Z,6.03
2023-04-20T12:01:37.584Z,5.93
2023-04-20T12:04:05.188Z,7.07
2023-04-20T12:06:32.664Z,6.25
2023-04-20T12:09:00.304Z,5.78
2023-04-20T12:11:27.783Z,6.82
2023-04-20T12:13:54.657Z,6.00
2023-04-20T12:16:21.768Z,6.13
2023-04-20T12:18:48.782Z,5.80
2023-04-20T12:21:15.582Z,5.20
2023-04-20T12:23:43.895Z,6.50
2023-04-20T12:26:11.273Z,5.75
2023-04-20T12:28:38.042Z,5.85
2023-04-20T12:31:05.047Z,5.85
2023-04-20T12:33:32.126Z,5.05
2023-04-20T12:35:58.883Z,5.53
2023-04-20T12:38:25.693Z,6.15
2023-04-20T12:40:52.401Z,6.03
2023-04-20T12:43:19.151Z,5.18
2023-04-20T12:45:46.094Z,6.00
2023-04-20T12:48:12.982Z,6.00
2023-04-20T12:50:39.914Z,7.28
2023-04-20T12:53:06.825Z,8.55
2023-04-20T12:55:33.803Z,6.53
2023-04-20T12:58:00.674Z,7.57
2023-04-20T13:00:27.446Z,6.53
2023-04-20T13:02:54.462Z,7.68
2023-04-20T13:05:21.579Z,6.88
2023-04-20T13:07:48.362Z,6.65
2023-04-20T13:10:15.214Z,6.82
2023-04-20T13:12:43.420Z,7.45
2023-04-20T13:15:10.849Z,7.10
2023-04-20T13:17:38.561Z,7.28
2023-04-20T13:20:06.380Z,7.68
2023-04-20T13:22:33.873Z,7.28
2023-04-20T13:25:01.494Z,7.53
2023-04-20T13:27:28.301Z,7.13
2023-04-20T13:29:55.260Z,7.10
2023-04-20T13:32:22.048Z,8.73
2023-04-20T13:34:48.759Z,7.80
2023-04-20T13:37:15.644Z,8.18
2023-04-20T13:39:42.971Z,7.05
2023-04-20T13:42:09.715Z,6.68
2023-04-20T13:44:36.444Z,9.63
2023-04-20T13:47:03.287Z,7.97
2023-04-20T13:49:30.281Z,6.07
2023-04-20T13:51:57.046Z,7.78
2023-04-20T13:54:23.792Z,6.72
2023-04-20T13:56:51.404Z,8.00
2023-04-20T13:59:18.207Z,7.10
2023-04-20T14:01:45.170Z,6.70
2023-04-20T14:04:12.296Z,6.85
2023-04-20T14:06:39.226Z,6.38
2023-04-20T14:09:06.134Z,5.93
2023-04-20T14:11:33.237Z,6.43
2023-04-20T14:14:00.080Z,6.50
2023-04-20T14:16:28.186Z,6.82
2023-04-20T14:18:54.955Z,7.07
2023-04-20T14:21:21.757Z,6.93
2023-04-20T14:23:53.235Z,6.80
2023-04-20T14:26:20.769Z,6.85
2023-04-20T14:28:47.569Z,7.07
2023-04-20T14:31:14.348Z,7.35
2023-04-20T14:33:41.728Z,6.38
2023-04-20T14:36:09.567Z,7.03
2023-04-20T14:38:36.393Z,5.95
2023-04-20T14:41:03.175Z,6.50
2023-04-20T14:43:29.952Z,6.30
2023-04-20T14:45:58.646Z,6.28
2023-04-20T14:48:30.322Z,5.72
2023-04-20T14:50:57.253Z,6.70
2023-04-20T14:53:24.238Z,6.85
2023-04-20T14:55:51.366Z,6.78
2023-04-20T14:58:20.044Z,6.68
2023-04-20T15:00:47.027Z,6.47
2023-04-20T15:03:14.078Z,6.57
2023-04-20T15:05:41.274Z,6.40
2023-04-20T15:08:08.224Z,6.65
2023-04-20T15:10:35.883Z,6.45
2023-04-20T15:13:04.651Z,6.75
2023-04-20T15:15:47.020Z,7.28
2023-04-20T15:18:18.869Z,7.45
2023-04-20T15:20:45.863Z,6.95
2023-04-20T15:23:12.803Z,7.40
2023-04-20T15:25:39.848Z,7.00
2023-04-20T15:28:06.927Z,6.78
2023-04-20T15:30:33.767Z,6.40
2023-04-20T15:33:04.362Z,6.50
2023-04-20T15:35:32.684Z,6.43
2023-04-20T15:37:59.440Z,6.15
2023-04-20T15:40:27.327Z,6.82
2023-04-20T15:42:57.496Z,7.20
2023-04-20T15:45:24.606Z,6.60
2023-04-20T15:47:51.627Z,6.60
2023-04-20T15:50:18.683Z,6.72
2023-04-20T15:52:45.881Z,6.95
2023-04-20T15:55:12.735Z,6.43
2023-04-20T15:57:39.633Z,7.55
2023-04-20T16:00:08.182Z,6.97
2023-04-20T16:02:35.922Z,6.88
2023-04-20T16:05:03.109Z,6.53
2023-04-20T16:07:29.979Z,7.35
2023-04-20T16:09:56.825Z,7.15
2023-04-20T16:12:23.688Z,7.68
2023-04-20T16:14:51.833Z,6.95
2023-04-20T16:17:20.422Z,8.13
2023-04-20T16:19:47.252Z,6.63
2023-04-20T16:22:14.193Z,7.30
2023-04-20T16:24:41.030Z,7.93
2023-04-20T16:27:07.874Z,6.90
2023-04-20T16:30:34.320Z,7.65
2023-04-20T16:33:02.248Z,7.25
2023-04-20T16:35:29.472Z,7.88
2023-04-20T16:37:56.405Z,7.20
2023-04-20T16:40:23.290Z,6.55
2023-04-20T16:42:50.031Z,7.68
2023-04-20T16:45:16.964Z,7.35
2023-04-20T16:47:43.756Z,7.63
2023-04-20T16:50:14.183Z,7.45
2023-04-20T16:52:41.040Z,7.82
2023-04-20T16:55:08.204Z,7.13
2023-04-20T16:58:23.333Z,7.82
2023-04-20T17:04:18.158Z,8.25
2023-04-20T17:13:12.674Z,8.45
2023-04-20T17:15:42.590Z,8.95
2023-04-20T17:18:09.488Z,8.55
2023-04-20T17:20:36.517Z,8.07
2023-04-20T17:23:03.328Z,8.13
2023-04-20T17:25:30.175Z,7.50
2023-04-20T17:27:57.000Z,7.70
2023-04-20T17:30:23.901Z,8.32
2023-04-20T17:32:52.885Z,7.97
2023-04-20T17:35:19.866Z,8.00
2023-04-20T17:37:46.592Z,7.25
2023-04-20T17:40:47.465Z,7.63
2023-04-20T17:43:14.406Z,8.00
2023-04-20T17:45:41.302Z,8.18
2023-04-20T17:48:08.980Z,7.88
2023-04-20T17:50:36.128Z,8.13
2023-04-20T17:53:06.712Z,8.15
2023-04-20T17:55:34.564Z,8.27
2023-04-20T17:58:01.813Z,7.55
2023-04-20T18:00:28.593Z,8.07
2023-04-20T18:02:55.669Z,8.85
2023-04-20T18:05:22.561Z,7.43
2023-04-20T18:07:51.023Z,8.68
2023-04-20T18:10:18.099Z,9.35
2023-04-20T18:12:45.056Z,10.70
2023-04-20T18:15:12.766Z,17.77
2023-04-20T18:17:39.843Z,22.63
2023-04-20T18:20:08.627Z,15.23
2023-04-20T18:31:35.642Z,8.98
2023-04-20T18:34:02.481Z,8.80
2023-04-20T18:36:30.132Z,9.30
2023-04-20T18:38:57.401Z,8.63
2023-04-20T18:41:25.687Z,8.65
2023-04-20T18:43:56.409Z,8.45
2023-04-20T18:46:23.337Z,8.27
2023-04-20T18:48:50.158Z,8.50
2023-04-20T18:51:34.122Z,8.73
2023-04-20T18:54:01.185Z,8.05
2023-04-20T18:56:27.941Z,8.50
2023-04-20T18:58:57.816Z,7.43
2023-04-20T19:05:03.578Z,8.88
2023-04-20T19:07:30.409Z,8.32
2023-04-20T19:09:57.302Z,8.77
2023-04-20T19:12:24.123Z,9.60
2023-04-20T19:14:50.864Z,8.35
2023-04-20T19:17:17.778Z,8.98
2023-04-20T19:19:44.562Z,8.95
2023-04-20T19:22:11.360Z,7.72
2023-04-20T19:24:38.139Z,8.68
2023-04-20T19:27:04.893Z,8.52
2023-04-20T19:29:32.766Z,8.23
2023-04-20T19:31:59.644Z,8.90
2023-04-20T19:34:27.101Z,8.48
2023-04-20T19:36:54.162Z,8.77
2023-04-20T19:39:21.026Z,8.57
2023-04-20T19:41:47.873Z,9.00
2023-04-20T19:44:14.809Z,10.15
2023-04-20T19:46:43.485Z,9.15
2023-04-20T19:49:10.334Z,9.75
2023-04-20T19:51:37.090Z,9.50
2023-04-20T19:54:04.859Z,8.77
2023-04-20T19:56:32.122Z,9.38
2023-04-20T19:58:59.002Z,10.18
2023-04-20T20:01:25.954Z,9.70
2023-04-20T20:03:53.216Z,9.02
2023-04-20T20:06:21.620Z,10.13
2023-04-20T20:08:48.591Z,9.75
2023-04-20T20:11:15.378Z,9.80
2023-04-20T20:13:42.175Z,10.07
2023-04-20T20:16:10.313Z,8.93
2023-04-20T20:18:37.272Z,9.32
2023-04-20T20:21:04.138Z,9.20
2023-04-20T20:23:30.875Z,9.75
2023-04-20T20:25:57.676Z,9.45
2023-04-20T20:28:24.441Z,10.20
2023-04-20T20:30:51.180Z,9.95
2023-04-20T20:33:17.897Z,9.13
2023-04-20T20:35:45.098Z,9.35
2023-04-20T20:38:12.120Z,9.52
2023-04-20T20:40:39.800Z,8.98
2023-04-20T20:43:06.684Z,8.85
2023-04-20T20:45:33.581Z,9.43
2023-04-20T20:48:00.876Z,10.07
2023-04-20T20:50:27.926Z,9.82
2023-04-20T20:52:54.827Z,9.15
2023-04-20T20:55:21.867Z,9.40
2023-04-20T20:57:48.661Z,9.73
2023-04-20T21:00:16.155Z,9.25
2023-04-20T21:02:43.131Z,9.40
2023-04-20T21:05:10.435Z,9.77
2023-04-20T21:07:37.292Z,8.57
2023-04-20T21:10:04.372Z,9.55
2023-04-20T21:12:31.160Z,10.73
2023-04-20T21:14:58.024Z,9.63
2023-04-20T21:18:16.432Z,9.65
2023-04-20T21:20:43.248Z,9.75
2023-04-20T21:23:10.158Z,8.82
2023-04-20T21:25:36.958Z,10.40
2023-04-20T21:28:03.881Z,9.55
2023-04-20T21:30:30.792Z,9.80
2023-04-20T21:32:57.710Z,9.68
2023-04-20T21:35:24.637Z,9.80
2023-04-20T21:37:51.481Z,11.07
2023-04-20T21:40:18.392Z,9.63
2023-04-20T21:42:48.349Z,9.82
2023-04-20T21:45:15.293Z,10.65
2023-04-20T21:47:42.184Z,9.90
2023-04-20T21:50:09.596Z,9.68
2023-04-20T21:52:36.500Z,9.95
2023-04-20T21:55:03.400Z,9.68
2023-04-20T21:57:30.198Z,10.27
2023-04-20T21:59:57.046Z,9.82
2023-04-20T22:02:23.937Z,10.45
2023-04-20T22:04:51.090Z,9.57
2023-04-20T22:07:18.688Z,9.38
2023-04-20T22:09:45.521Z,9.57
2023-04-20T22:12:12.383Z,8.52
2023-04-20T22:14:39.241Z,10.15
2023-04-20T22:17:06.262Z,10.48
2023-04-20T22:19:33.514Z,8.23
2023-04-20T22:22:00.417Z,9.45
2023-04-20T22:24:27.281Z,10.55
2023-04-20T22:26:54.333Z,9.75
2023-04-20T22:29:21.471Z,9.50
2023-04-20T22:31:48.656Z,10.40
2023-04-20T22:34:15.978Z,9.25
2023-04-20T22:36:42.840Z,9.73
2023-04-20T22:39:09.953Z,9.85
2023-04-20T22:41:36.861Z,9.75
2023-04-20T22:44:03.781Z,10.52
2023-04-20T22:46:30.726Z,9.95
2023-04-20T22:48:57.576Z,9.25
2023-04-20T22:51:24.661Z,9.68
2023-04-20T22:53:51.454Z,9.93
2023-04-20T22:56:18.382Z,8.93
2023-04-20T22:58:45.127Z,9.27
2023-04-20T23:01:11.902Z,9.43
2023-04-20T23:03:38.790Z,10.15
2023-04-20T23:06:06.983Z,9.40
2023-04-20T23:08:34.535Z,9.23
2023-04-20T23:11:01.352Z,9.45
2023-04-20T23:13:28.147Z,8.80
2023-04-20T23:15:54.980Z,9.20
2023-04-20T23:18:21.739Z,9.70
2023-04-20T23:20:48.487Z,11.13
2023-04-20T23:23:15.260Z,15.27
2023-04-20T23:25:42.100Z,15.20
2023-04-20T23:28:08.869Z,12.68
2023-04-20T23:30:35.803Z,9.32
2023-04-20T23:33:02.678Z,9.32
2023-04-20T23:35:29.601Z,9.05
2023-04-20T23:37:58.027Z,9.13
2023-04-20T23:40:25.366Z,7.80
2023-04-20T23:42:52.133Z,8.98
2023-04-20T23:45:18.901Z,8.80
2023-04-20T23:47:45.765Z,9.10
2023-04-20T23:50:12.773Z,9.30
2023-04-20T23:52:40.977Z,9.10
2023-04-20T23:55:08.829Z,9.55
2023-04-20T23:57:35.783Z,9.57
